createdAt,value
2023-03-06T00:00:54.670Z,7.07
2023-03-06T00:03:22.605Z,7.25
2023-03-06T00:05:49.674Z,7.83
2023-03-06T00:08:16.530Z,10.70
2023-03-06T00:10:43.942Z,5.65
2023-03-06T00:13:18.972Z,6.75
2023-03-06T00:15:47.058Z,6.68
2023-03-06T00:18:14.574Z,8.00
2023-03-06T00:20:42.935Z,7.97
2023-03-06T00:23:11.158Z,7.10
2023-03-06T00:25:41.667Z,8.30
2023-03-06T00:28:08.842Z,10.13
2023-03-06T00:30:35.950Z,10.70
2023-03-06T00:33:03.001Z,9.77
2023-03-06T00:35:30.301Z,7.47
2023-03-06T00:37:59.743Z,8.13
2023-03-06T00:40:27.464Z,10.38
2023-03-06T00:42:54.432Z,10.33
2023-03-06T00:45:21.427Z,6.78
2023-03-06T00:47:48.403Z,11.32
2023-03-06T00:50:15.489Z,7.15
2023-03-06T00:52:42.580Z,7.12
2023-03-06T00:55:10.812Z,6.13
2023-03-06T00:57:38.065Z,7.87
2023-03-06T01:00:06.224Z,8.95
2023-03-06T01:02:33.281Z,8.27
2023-03-06T01:05:00.433Z,8.05
2023-03-06T01:07:33.445Z,10.23
2023-03-06T01:10:00.522Z,6.87
2023-03-06T01:12:27.397Z,9.07
2023-03-06T01:14:54.331Z,7.90
2023-03-06T01:17:21.265Z,8.77
2023-03-06T01:19:48.289Z,6.67
2023-03-06T01:22:15.095Z,5.80
2023-03-06T01:24:41.964Z,6.60
2023-03-06T01:27:08.901Z,8.30
2023-03-06T01:29:35.782Z,7.82
2023-03-06T01:32:02.848Z,8.30
2023-03-06T01:34:29.773Z,9.65
2023-03-06T01:36:56.644Z,7.75
2023-03-06T01:39:23.608Z,12.45
2023-03-06T01:41:50.433Z,12.88
2023-03-06T01:44:17.335Z,25.60
2023-03-06T01:46:45.482Z,13.95
2023-03-06T01:49:30.992Z,12.57
2023-03-06T01:52:03.234Z,12.45
2023-03-06T01:54:38.320Z,14.68
2023-03-06T01:57:13.047Z,11.57
2023-03-06T01:59:42.438Z,9.75
2023-03-06T02:02:11.721Z,11.55
2023-03-06T02:04:40.521Z,11.82
2023-03-06T02:07:08.915Z,13.88
2023-03-06T02:09:37.754Z,76.90
2023-03-06T02:12:14.529Z,14.55
2023-03-06T02:14:42.516Z,16.92
2023-03-06T02:17:12.379Z,9.73
2023-03-06T02:19:48.562Z,11.73
2023-03-06T02:22:15.524Z,30.60
2023-03-06T02:25:03.523Z,12.15
2023-03-06T02:27:31.143Z,24.70
2023-03-06T02:29:58.117Z,13.80
2023-03-06T02:32:25.094Z,10.23
2023-03-06T02:34:59.224Z,7.93
2023-03-06T02:37:28.757Z,7.75
2023-03-06T02:40:08.446Z,7.50
2023-03-06T02:42:35.627Z,8.27
2023-03-06T02:45:05.359Z,8.88
2023-03-06T02:47:32.194Z,6.67
2023-03-06T02:49:59.049Z,8.13
2023-03-06T02:52:25.924Z,8.18
2023-03-06T02:54:52.832Z,8.10
2023-03-06T02:57:19.865Z,6.55
2023-03-06T02:59:46.835Z,6.93
2023-03-06T03:02:13.925Z,7.57
2023-03-06T03:04:40.941Z,7.97
2023-03-06T03:07:08.295Z,8.10
2023-03-06T03:09:37.062Z,7.80
2023-03-06T03:12:06.101Z,7.43
2023-03-06T03:14:33.227Z,7.90
2023-03-06T03:17:00.730Z,7.10
2023-03-06T03:19:42.641Z,8.45
2023-03-06T03:22:09.653Z,5.55
2023-03-06T03:24:36.517Z,6.30
2023-03-06T03:27:03.643Z,10.00
2023-03-06T03:29:30.625Z,8.00
2023-03-06T03:31:57.508Z,6.18
2023-03-06T03:34:24.478Z,8.70
2023-03-06T03:36:51.301Z,6.60
2023-03-06T03:39:18.445Z,6.50
2023-03-06T03:41:45.987Z,5.10
2023-03-06T03:44:13.143Z,9.23
2023-03-06T03:46:40.130Z,8.25
2023-03-06T03:49:07.148Z,7.73
2023-03-06T03:51:34.126Z,6.20
2023-03-06T03:54:00.968Z,9.35
2023-03-06T03:56:27.801Z,8.45
2023-03-06T03:58:54.770Z,8.30
2023-03-06T04:01:22.077Z,8.00
2023-03-06T04:03:49.157Z,7.85
2023-03-06T04:06:16.228Z,8.68
2023-03-06T04:08:43.828Z,7.10
2023-03-06T04:11:10.926Z,6.15
2023-03-06T04:13:38.300Z,7.53
2023-03-06T04:16:05.750Z,6.90
2023-03-06T04:18:33.097Z,6.55
2023-03-06T04:21:00.114Z,6.03
2023-03-06T04:23:27.995Z,7.12
2023-03-06T04:25:55.166Z,8.97
2023-03-06T04:28:22.240Z,5.85
2023-03-06T04:31:15.695Z,8.88
2023-03-06T04:33:42.548Z,7.78
2023-03-06T04:36:25.377Z,7.40
2023-03-06T04:38:52.281Z,8.20
2023-03-06T04:41:19.762Z,10.13
2023-03-06T04:43:46.677Z,8.30
2023-03-06T04:46:13.519Z,8.25
2023-03-06T04:48:40.720Z,7.50
2023-03-06T04:51:07.718Z,8.87
2023-03-06T04:53:34.577Z,7.65
2023-03-06T04:56:01.545Z,5.75
2023-03-06T04:58:28.871Z,6.78
2023-03-06T05:00:55.819Z,6.70
2023-03-06T05:03:22.804Z,5.00
2023-03-06T05:05:49.632Z,8.25
2023-03-06T05:08:17.821Z,6.80
2023-03-06T05:10:45.563Z,8.10
2023-03-06T05:13:12.779Z,6.65
2023-03-06T05:15:42.621Z,7.70
2023-03-06T05:18:15.375Z,5.55
2023-03-06T05:20:42.378Z,9.40
2023-03-06T05:23:09.758Z,9.27
2023-03-06T05:25:39.750Z,13.20
2023-03-06T05:28:07.596Z,9.83
2023-03-06T05:30:34.971Z,9.13
2023-03-06T05:33:01.989Z,20.48
2023-03-06T05:35:28.955Z,15.18
2023-03-06T05:37:56.126Z,19.87
2023-03-06T05:40:23.094Z,22.80
2023-03-06T05:42:50.100Z,17.62
2023-03-06T05:45:17.055Z,10.50
2023-03-06T05:47:44.080Z,13.20
2023-03-06T05:50:12.037Z,9.75
2023-03-06T05:52:40.014Z,8.83
2023-03-06T05:55:07.990Z,7.60
2023-03-06T05:57:34.931Z,7.93
2023-03-06T06:00:01.842Z,8.38
2023-03-06T06:02:30.650Z,9.93
2023-03-06T06:04:57.631Z,10.83
2023-03-06T06:07:24.438Z,15.40
2023-03-06T06:09:53.779Z,17.45
2023-03-06T06:12:20.889Z,25.83
2023-03-06T06:14:47.759Z,8.80
2023-03-06T06:17:14.643Z,7.80
2023-03-06T06:19:41.611Z,8.35
2023-03-06T06:22:08.742Z,11.20
2023-03-06T06:24:35.597Z,7.00
2023-03-06T06:27:03.964Z,8.90
2023-03-06T06:29:31.541Z,7.37
2023-03-06T06:31:59.271Z,9.35
2023-03-06T06:34:26.492Z,9.02
2023-03-06T06:36:54.602Z,9.60
2023-03-06T06:39:23.252Z,8.73
2023-03-06T06:42:05.505Z,9.93
2023-03-06T06:44:39.775Z,7.97
2023-03-06T06:47:24.895Z,9.93
2023-03-06T06:49:56.493Z,9.02
2023-03-06T06:52:24.968Z,8.27
2023-03-06T06:54:52.637Z,10.43
2023-03-06T06:57:19.954Z,10.80
2023-03-06T06:59:46.859Z,11.05
2023-03-06T07:02:16.033Z,11.25
2023-03-06T07:04:56.562Z,9.10
2023-03-06T07:07:30.567Z,10.70
2023-03-06T07:09:58.107Z,11.45
2023-03-06T07:12:26.022Z,10.95
2023-03-06T07:14:53.165Z,12.63
2023-03-06T07:17:20.413Z,12.95
2023-03-06T07:19:48.409Z,11.37
2023-03-06T07:22:15.691Z,12.45
2023-03-06T07:24:43.198Z,9.80
2023-03-06T07:27:10.411Z,11.15
2023-03-06T07:29:37.440Z,9.23
2023-03-06T07:32:04.760Z,10.13
2023-03-06T07:34:32.048Z,10.77
2023-03-06T07:36:58.886Z,10.18
2023-03-06T07:39:25.713Z,9.10
2023-03-06T07:41:53.526Z,11.68
2023-03-06T07:44:20.712Z,10.77
2023-03-06T07:46:47.773Z,12.32
2023-03-06T07:49:14.667Z,13.27
2023-03-06T07:51:41.776Z,11.15
2023-03-06T07:54:08.987Z,11.12
2023-03-06T07:56:35.937Z,15.00
2023-03-06T07:59:03.342Z,15.85
2023-03-06T08:01:30.613Z,11.48
2023-03-06T08:03:57.836Z,12.98
2023-03-06T08:06:26.964Z,11.63
2023-03-06T08:08:55.650Z,11.80
2023-03-06T08:11:25.000Z,13.85
2023-03-06T08:13:53.066Z,11.18
2023-03-06T08:16:25.737Z,11.27
2023-03-06T08:18:53.280Z,10.85
2023-03-06T08:21:23.949Z,11.47
2023-03-06T08:23:51.413Z,9.68
2023-03-06T08:26:24.654Z,14.25
2023-03-06T08:28:52.914Z,14.50
2023-03-06T08:31:36.447Z,14.38
2023-03-06T08:34:07.720Z,13.37
2023-03-06T08:36:34.602Z,10.68
2023-03-06T08:39:02.339Z,13.23
2023-03-06T08:41:29.436Z,9.93
2023-03-06T08:43:56.394Z,12.70
2023-03-06T08:46:26.019Z,11.77
2023-03-06T08:48:53.263Z,10.95
2023-03-06T08:51:21.774Z,11.93
2023-03-06T08:53:50.065Z,12.35
2023-03-06T08:56:31.532Z,12.45
2023-03-06T08:59:00.068Z,8.23
2023-03-06T09:01:29.875Z,7.80
2023-03-06T09:04:00.071Z,13.82
2023-03-06T09:06:30.235Z,9.50
2023-03-06T09:08:57.316Z,15.15
2023-03-06T09:11:25.527Z,10.97
2023-03-06T09:13:53.586Z,10.57
2023-03-06T09:16:20.535Z,9.50
2023-03-06T09:18:50.439Z,11.65
2023-03-06T09:21:17.808Z,12.27
2023-03-06T09:23:45.176Z,10.87
2023-03-06T09:26:13.001Z,11.65
2023-03-06T09:28:40.817Z,11.85
2023-03-06T09:31:19.184Z,10.90
2023-03-06T09:33:46.812Z,12.00
2023-03-06T09:36:20.280Z,11.37
2023-03-06T09:38:48.474Z,13.88
2023-03-06T09:41:49.608Z,11.38
2023-03-06T09:44:18.045Z,11.40
2023-03-06T09:47:00.318Z,10.60
2023-03-06T09:49:46.025Z,11.97
2023-03-06T09:52:25.224Z,11.85
2023-03-06T09:55:01.061Z,13.43
2023-03-06T09:57:33.163Z,10.27
2023-03-06T10:00:05.781Z,11.38
2023-03-06T10:02:44.633Z,11.73
2023-03-06T10:05:21.714Z,9.80
2023-03-06T10:08:02.010Z,12.25
2023-03-06T10:10:49.743Z,9.82
2023-03-06T10:13:25.347Z,11.73
2023-03-06T10:15:59.420Z,13.03
2023-03-06T10:18:26.308Z,9.68
2023-03-06T10:20:59.459Z,14.60
2023-03-06T10:23:52.025Z,12.15
2023-03-06T10:26:49.767Z,11.55
2023-03-06T10:29:22.866Z,10.17
2023-03-06T10:32:01.696Z,12.75
2023-03-06T10:34:36.919Z,11.32
2023-03-06T10:37:16.773Z,13.23
2023-03-06T10:39:43.655Z,11.32
2023-03-06T10:42:10.597Z,11.07
2023-03-06T10:44:37.512Z,13.68
2023-03-06T10:47:35.320Z,11.75
2023-03-06T10:50:06.052Z,11.85
2023-03-06T10:52:36.094Z,14.30
2023-03-06T10:55:25.219Z,13.03
2023-03-06T10:57:52.342Z,14.20
2023-03-06T11:00:36.006Z,10.73
2023-03-06T11:03:04.846Z,12.35
2023-03-06T11:05:31.751Z,11.88
2023-03-06T11:08:00.439Z,13.10
2023-03-06T11:10:29.164Z,12.18
2023-03-06T11:13:21.292Z,11.23
2023-03-06T11:16:07.782Z,11.35
2023-03-06T11:18:41.111Z,10.73
2023-03-06T11:21:43.337Z,16.70
2023-03-06T11:24:20.130Z,14.73
2023-03-06T11:26:52.633Z,14.10
2023-03-06T11:29:43.426Z,9.18
2023-03-06T11:32:16.923Z,8.93
2023-03-06T11:34:52.335Z,11.40
2023-03-06T11:37:43.475Z,10.95
2023-03-06T11:40:19.483Z,10.60
2023-03-06T11:43:06.184Z,9.10
2023-03-06T11:45:57.376Z,10.15
2023-03-06T11:48:40.628Z,8.27
2023-03-06T11:51:28.701Z,10.20
2023-03-06T11:53:58.610Z,9.48
2023-03-06T11:56:42.981Z,12.15
2023-03-06T11:59:31.328Z,13.57
2023-03-06T12:02:26.351Z,12.47
2023-03-06T12:05:18.182Z,12.73
2023-03-06T12:08:23.735Z,9.43
2023-03-06T12:14:02.144Z,10.73
2023-03-06T12:16:42.929Z,11.17
2023-03-06T12:19:19.851Z,10.07
2023-03-06T12:22:09.324Z,9.88
2023-03-06T12:24:55.214Z,10.80
2023-03-06T12:27:52.295Z,9.80
2023-03-06T12:30:31.138Z,9.93
2023-03-06T12:33:11.464Z,9.10
2023-03-06T12:36:02.494Z,10.90
2023-03-06T12:38:47.267Z,10.63
2023-03-06T12:41:51.984Z,11.80
2023-03-06T12:44:34.070Z,13.63
2023-03-06T12:47:10.454Z,16.23
2023-03-06T12:49:51.777Z,17.42
2023-03-06T12:52:30.703Z,19.75
2023-03-06T12:55:01.349Z,13.27
2023-03-06T12:57:29.886Z,12.10
2023-03-06T12:59:56.829Z,12.32
2023-03-06T13:02:46.246Z,12.80
2023-03-06T13:05:35.134Z,10.18
2023-03-06T13:08:20.583Z,13.40
2023-03-06T13:11:20.213Z,12.43
2023-03-06T13:13:49.065Z,11.20
2023-03-06T13:16:16.051Z,15.15
2023-03-06T13:18:42.977Z,9.85
2023-03-06T13:21:42.514Z,10.75
2023-03-06T13:24:27.248Z,12.67
2023-03-06T13:27:06.443Z,13.80
2023-03-06T13:29:36.428Z,11.77
2023-03-06T13:32:03.572Z,11.02
2023-03-06T13:34:47.067Z,12.20
2023-03-06T13:37:14.020Z,14.07
2023-03-06T13:39:56.123Z,11.88
2023-03-06T13:42:36.773Z,12.15
2023-03-06T13:45:22.967Z,12.07
2023-03-06T13:50:46.869Z,9.83
2023-03-06T13:54:00.233Z,9.52
2023-03-06T13:56:58.398Z,11.75
2023-03-06T14:00:03.047Z,13.15
2023-03-06T14:02:41.284Z,12.55
2023-03-06T14:05:14.527Z,14.77
2023-03-06T14:07:46.628Z,14.40
2023-03-06T14:10:13.591Z,12.57
2023-03-06T14:13:00.853Z,11.55
2023-03-06T14:15:36.534Z,10.68
2023-03-06T14:18:24.488Z,11.50
2023-03-06T14:21:01.026Z,12.15
2023-03-06T14:23:35.388Z,15.65
2023-03-06T14:26:08.461Z,10.70
2023-03-06T14:28:36.547Z,10.98
2023-03-06T14:31:05.996Z,10.83
2023-03-06T14:33:43.239Z,11.38
2023-03-06T14:36:19.982Z,11.18
2023-03-06T14:38:51.663Z,12.32
2023-03-06T14:41:27.466Z,11.23
2023-03-06T14:44:19.257Z,11.60
2023-03-06T14:46:48.805Z,16.50
2023-03-06T14:49:18.280Z,11.27
2023-03-06T14:51:54.677Z,10.63
2023-03-06T14:54:26.348Z,12.45
2023-03-06T14:57:02.974Z,12.47
2023-03-06T14:59:34.934Z,12.63
2023-03-06T15:02:05.759Z,14.52
2023-03-06T15:04:55.103Z,10.60
2023-03-06T15:07:27.818Z,11.30
2023-03-06T15:09:55.233Z,12.10
2023-03-06T15:12:29.818Z,11.02
2023-03-06T15:15:06.255Z,12.35
2023-03-06T15:17:45.093Z,11.88
2023-03-06T15:20:36.801Z,14.00
2023-03-06T15:23:13.497Z,12.60
2023-03-06T15:25:40.383Z,14.50
2023-03-06T15:28:32.754Z,10.93
2023-03-06T15:31:22.323Z,13.25
2023-03-06T15:34:16.043Z,17.40
2023-03-06T15:36:54.672Z,11.93
2023-03-06T15:39:32.182Z,12.93
2023-03-06T15:42:19.543Z,13.62
2023-03-06T15:44:49.168Z,14.30
2023-03-06T15:47:16.155Z,16.83
2023-03-06T15:49:43.641Z,16.33
2023-03-06T15:52:11.055Z,14.30
2023-03-06T15:54:38.547Z,14.50
2023-03-06T15:57:08.826Z,12.10
2023-03-06T15:59:43.028Z,12.18
2023-03-06T16:02:22.018Z,14.57
2023-03-06T16:04:49.899Z,13.02
2023-03-06T16:07:17.351Z,14.07
2023-03-06T16:09:45.004Z,12.15
2023-03-06T16:12:21.168Z,14.25
2023-03-06T16:14:48.890Z,13.33
2023-03-06T16:17:17.198Z,13.73
2023-03-06T16:19:44.725Z,14.63
2023-03-06T16:22:12.489Z,14.93
2023-03-06T16:24:39.531Z,20.88
2023-03-06T16:27:07.075Z,19.57
2023-03-06T16:29:34.113Z,22.27
2023-03-06T16:32:02.095Z,21.92
2023-03-06T16:34:29.256Z,19.10
2023-03-06T16:36:56.684Z,19.95
2023-03-06T16:39:25.259Z,18.70
2023-03-06T16:41:52.653Z,17.48
2023-03-06T16:44:23.125Z,16.35
2023-03-06T16:46:50.879Z,15.70
2023-03-06T16:49:20.980Z,15.20
2023-03-06T16:51:49.922Z,20.23
2023-03-06T16:54:17.655Z,20.25
2023-03-06T16:56:45.498Z,23.92
2023-03-06T16:59:13.458Z,26.10
2023-03-06T17:01:50.554Z,23.83
2023-03-06T17:04:18.283Z,28.20
2023-03-06T17:06:45.705Z,26.80
2023-03-06T17:09:14.435Z,27.02
2023-03-06T17:11:43.535Z,24.90
2023-03-06T17:14:10.422Z,27.92
2023-03-06T17:16:40.735Z,25.10
2023-03-06T17:19:07.945Z,21.17
2023-03-06T17:21:38.457Z,20.35
2023-03-06T17:24:10.208Z,19.17
2023-03-06T17:26:39.284Z,17.20
2023-03-06T17:29:07.272Z,17.97
2023-03-06T17:31:36.853Z,19.05
2023-03-06T17:34:04.446Z,20.10
2023-03-06T17:36:32.371Z,19.62
2023-03-06T17:39:02.125Z,16.52
2023-03-06T17:41:30.346Z,16.93
2023-03-06T17:43:58.716Z,16.30
2023-03-06T17:46:27.283Z,29.58
2023-03-06T17:48:57.801Z,20.67
2023-03-06T17:51:25.894Z,17.95
2023-03-06T17:53:55.786Z,19.67
2023-03-06T17:56:23.824Z,21.05
2023-03-06T17:58:53.020Z,22.55
2023-03-06T18:01:25.014Z,22.83
2023-03-06T18:03:53.252Z,34.17
2023-03-06T18:06:22.597Z,19.33
2023-03-06T18:08:52.708Z,18.95
2023-03-06T18:11:21.894Z,18.35
2023-03-06T18:13:50.228Z,17.02
2023-03-06T18:16:21.447Z,15.23
2023-03-06T18:18:57.023Z,13.77
2023-03-06T18:21:25.856Z,14.90
2023-03-06T18:23:55.470Z,15.27
2023-03-06T18:26:30.456Z,17.08
2023-03-06T18:29:04.157Z,17.73
2023-03-06T18:31:36.679Z,14.53
2023-03-06T18:34:08.395Z,18.85
2023-03-06T18:36:38.650Z,20.20
2023-03-06T18:39:10.160Z,16.62
2023-03-06T18:41:38.988Z,17.12
2023-03-06T18:44:08.768Z,17.40
2023-03-06T18:46:38.840Z,17.10
2023-03-06T18:49:07.197Z,14.73
2023-03-06T18:51:36.024Z,14.70
2023-03-06T18:54:05.476Z,16.27
2023-03-06T18:56:34.170Z,15.47
2023-03-06T18:59:07.051Z,15.10
2023-03-06T19:01:35.155Z,14.73
2023-03-06T19:04:04.571Z,16.73
2023-03-06T19:06:33.324Z,13.13
2023-03-06T19:09:02.831Z,15.00
2023-03-06T19:11:32.433Z,16.23
2023-03-06T19:14:02.110Z,15.50
2023-03-06T19:16:31.776Z,14.87
2023-03-06T19:19:00.343Z,13.98
2023-03-06T19:21:31.965Z,16.90
2023-03-06T19:23:59.571Z,18.60
2023-03-06T19:26:28.270Z,18.30
2023-03-06T19:28:56.564Z,18.73
2023-03-06T19:31:27.348Z,16.27
2023-03-06T19:33:57.510Z,17.80
2023-03-06T19:36:31.232Z,23.17
2023-03-06T19:39:03.465Z,17.70
2023-03-06T19:41:33.486Z,17.17
2023-03-06T19:44:08.609Z,20.30
2023-03-06T19:46:36.911Z,29.13
2023-03-06T19:49:13.306Z,33.75
2023-03-06T19:51:41.892Z,40.22
2023-03-06T19:54:13.199Z,40.45
2023-03-06T19:56:40.980Z,38.95
2023-03-06T19:59:13.258Z,42.30
2023-03-06T20:01:41.924Z,31.15
2023-03-06T20:04:10.187Z,36.13
2023-03-06T20:06:39.420Z,42.13
2023-03-06T20:09:09.864Z,36.60
2023-03-06T20:11:39.028Z,31.47
2023-03-06T20:14:10.400Z,35.67
2023-03-06T20:16:39.062Z,34.00
2023-03-06T20:19:07.626Z,29.58
2023-03-06T20:21:37.937Z,30.05
2023-03-06T20:24:07.183Z,38.00
2023-03-06T20:26:36.873Z,39.33
2023-03-06T20:29:05.484Z,38.83
2023-03-06T20:31:34.239Z,42.17
2023-03-06T20:34:03.342Z,35.85
2023-03-06T20:36:36.942Z,33.87
2023-03-06T20:39:09.475Z,35.05
2023-03-06T20:41:38.108Z,38.13
2023-03-06T20:44:11.476Z,34.63
2023-03-06T20:46:41.292Z,48.05
2023-03-06T20:49:10.309Z,38.50
2023-03-06T20:51:39.898Z,42.88
2023-03-06T20:54:11.396Z,39.75
2023-03-06T20:56:42.250Z,43.58
2023-03-06T20:59:12.555Z,41.60
2023-03-06T21:01:42.622Z,39.50
2023-03-06T21:04:13.724Z,42.25
2023-03-06T21:06:45.932Z,55.38
2023-03-06T21:09:16.036Z,45.00
2023-03-06T21:11:44.366Z,42.22
2023-03-06T21:14:13.338Z,38.30
2023-03-06T21:16:41.382Z,37.65
2023-03-06T21:19:09.338Z,38.30
2023-03-06T21:21:36.799Z,35.75
2023-03-06T21:24:04.298Z,38.10
2023-03-06T21:26:34.107Z,35.03
2023-03-06T21:29:02.544Z,34.88
2023-03-06T21:31:30.508Z,40.42
2023-03-06T21:33:59.183Z,33.03
2023-03-06T21:36:27.226Z,36.78
2023-03-06T21:38:54.866Z,35.43
2023-03-06T21:41:28.084Z,34.38
2023-03-06T21:44:00.809Z,32.50
2023-03-06T21:46:28.590Z,34.33
2023-03-06T21:48:57.424Z,35.78
2023-03-06T21:51:26.182Z,30.60
2023-03-06T21:53:54.452Z,32.85
2023-03-06T21:56:25.073Z,36.13
2023-03-06T21:58:52.344Z,34.10
2023-03-06T22:01:24.915Z,34.15
2023-03-06T22:03:52.753Z,33.03
2023-03-06T22:06:23.814Z,35.72
2023-03-06T22:08:51.381Z,29.10
2023-03-06T22:11:20.889Z,33.78
2023-03-06T22:13:48.658Z,32.10
2023-03-06T22:16:17.263Z,31.37
2023-03-06T22:18:52.272Z,33.97
2023-03-06T22:21:22.786Z,30.17
2023-03-06T22:23:51.485Z,33.10
2023-03-06T22:26:19.412Z,30.45
2023-03-06T22:28:46.787Z,33.50
2023-03-06T22:31:16.994Z,32.70
2023-03-06T22:33:44.434Z,34.15
2023-03-06T22:36:15.742Z,35.03
2023-03-06T22:38:44.813Z,31.05
2023-03-06T22:41:14.442Z,29.03
2023-03-06T22:43:42.055Z,30.40
2023-03-06T22:46:12.459Z,31.58
2023-03-06T22:48:40.302Z,29.75
2023-03-06T22:51:16.178Z,28.48
2023-03-06T22:53:44.774Z,28.90
2023-03-06T22:56:15.773Z,27.35
2023-03-06T22:58:45.076Z,27.87
2023-03-06T23:01:21.536Z,26.67
2023-03-06T23:03:51.303Z,27.80
2023-03-06T23:06:20.287Z,24.63
2023-03-06T23:09:09.434Z,29.25
2023-03-06T23:11:36.870Z,24.25
2023-03-06T23:14:05.932Z,26.73
2023-03-06T23:16:33.188Z,23.67
2023-03-06T23:19:00.290Z,24.77
2023-03-06T23:21:27.217Z,22.02
2023-03-06T23:23:54.687Z,28.60
2023-03-06T23:26:24.852Z,23.23
2023-03-06T23:28:52.951Z,22.40
2023-03-06T23:31:23.044Z,22.50
2023-03-06T23:33:50.627Z,26.67
2023-03-06T23:36:18.803Z,25.80
2023-03-06T23:38:46.573Z,27.75
2023-03-06T23:41:16.084Z,28.62
2023-03-06T23:43:43.747Z,22.13
2023-03-06T23:46:10.782Z,25.25
2023-03-06T23:48:40.658Z,32.55
2023-03-06T23:51:19.096Z,28.65
2023-03-06T23:53:48.344Z,23.90
2023-03-06T23:56:15.512Z,24.80
2023-03-06T23:58:42.954Z,23.98
